Time;durP1;ratioP1;P1;durP2;ratioP2;P2;SDS_P1;SDS_P2;PMS_P1;PMS_P2;Temp;Humidity;BMP_temperature;BMP_pressure;BME280_temperature;BME280_humidity;BME280_pressure;Samples;Min_cycle;Max_cycle;Signal;HPM_P1;HPM_P2
2020/12/07 00:02:13;;;;;;;6.30;4.97;;;21.10;44.10;;;;;;601714;91;3001605;-30
2020/12/07 00:04:41;;;;;;;5.65;4.37;;;21.10;44.00;;;;;;604389;91;3001669;-31
2020/12/07 00:07:08;;;;;;;6.20;4.65;;;21.00;44.10;;;;;;609218;91;3001635;-30
2020/12/07 00:09:36;;;;;;;15.40;4.60;;;21.00;44.10;;;;;;608686;90;3001892;-31
2020/12/07 00:12:04;;;;;;;7.22;5.17;;;21.00;44.10;;;;;;595876;91;3002193;-32
2020/12/07 00:14:31;;;;;;;5.95;4.65;;;21.00;44.00;;;;;;605291;90;3002079;-30
2020/12/07 00:16:59;;;;;;;6.03;4.70;;;21.00;44.10;;;;;;602856;92;3001995;-29
2020/12/07 00:19:27;;;;;;;4.75;4.08;;;21.00;44.10;;;;;;605681;91;3001995;-33
2020/12/07 00:21:54;;;;;;;5.37;4.83;;;21.00;44.10;;;;;;597482;92;3002007;-30
2020/12/07 00:24:22;;;;;;;6.05;4.55;;;21.00;44.20;;;;;;603546;91;3002030;-28
2020/12/07 00:26:49;;;;;;;5.40;4.12;;;20.90;44.10;;;;;;598616;91;3002302;-31
2020/12/07 00:29:19;;;;;;;4.47;3.83;;;21.00;43.70;;;;;;599946;92;3002000;-30
2020/12/07 00:31:47;;;;;;;5.55;4.67;;;21.00;44.10;;;;;;606264;90;3002437;-31
2020/12/07 00:34:14;;;;;;;4.95;4.12;;;20.90;44.00;;;;;;603175;91;3003090;-28
2020/12/07 00:36:45;;;;;;;4.70;3.95;;;20.90;44.00;;;;;;592667;93;3001977;-30
2020/12/07 00:39:12;;;;;;;5.83;4.03;;;20.90;44.10;;;;;;602780;91;3001945;-30
2020/12/07 00:41:40;;;;;;;6.00;4.75;;;20.90;44.00;;;;;;595243;92;3001959;-29
2020/12/07 00:44:07;;;;;;;4.60;4.10;;;20.90;44.00;;;;;;604985;90;3003040;-31
2020/12/07 00:46:35;;;;;;;7.25;4.62;;;20.90;44.10;;;;;;589232;93;3002047;-29
2020/12/07 00:49:03;;;;;;;4.75;4.22;;;20.90;44.00;;;;;;590140;94;3002529;-28
2020/12/07 00:51:31;;;;;;;6.05;4.78;;;20.90;44.00;;;;;;596788;92;3003061;-29
2020/12/07 00:53:58;;;;;;;6.17;4.35;;;20.90;44.10;;;;;;595686;92;3001977;-29
2020/12/07 00:56:26;;;;;;;4.90;3.98;;;20.90;44.10;;;;;;609264;91;3002125;-29
2020/12/07 00:58:53;;;;;;;6.08;4.58;;;20.90;44.10;;;;;;606358;89;3002034;-29
2020/12/07 01:01:21;;;;;;;5.33;4.12;;;20.90;44.10;;;;;;608840;90;3001964;-28
2020/12/07 01:03:48;;;;;;;4.78;4.17;;;20.90;44.10;;;;;;606212;90;3003566;-29
2020/12/07 01:06:16;;;;;;;5.85;4.15;;;20.90;44.10;;;;;;602336;91;3001988;-33
2020/12/07 01:08:44;;;;;;;6.28;4.25;;;20.80;44.10;;;;;;606342;91;3002327;-29
2020/12/07 01:11:11;;;;;;;6.00;4.12;;;20.80;44.10;;;;;;607841;91;3002729;-32
2020/12/07 01:13:40;;;;;;;4.60;3.50;;;20.80;44.10;;;;;;605924;89;3002287;-29
2020/12/07 01:16:07;;;;;;;4.37;3.95;;;20.80;44.10;;;;;;607137;90;3002039;-29
2020/12/07 01:18:35;;;;;;;4.25;3.67;;;20.80;44.10;;;;;;605441;90;3002313;-31
2020/12/07 01:21:03;;;;;;;5.00;4.00;;;20.80;44.10;;;;;;607561;91;3002995;-30
2020/12/07 01:23:30;;;;;;;4.78;3.90;;;20.80;44.00;;;;;;607554;91;3002008;-30
2020/12/07 01:25:58;;;;;;;7.47;4.28;;;20.80;44.00;;;;;;603174;91;3003091;-28
2020/12/07 01:28:25;;;;;;;4.22;3.70;;;20.80;44.00;;;;;;608381;91;3002322;-31
2020/12/07 01:30:53;;;;;;;4.22;3.62;;;20.80;44.00;;;;;;608068;91;3002300;-30
2020/12/07 01:33:21;;;;;;;4.83;3.85;;;20.70;44.00;;;;;;608078;91;3001980;-31
2020/12/07 01:35:49;;;;;;;4.55;4.08;;;20.70;43.90;;;;;;605837;91;3002030;-29
2020/12/07 01:38:16;;;;;;;4.05;3.62;;;20.70;44.00;;;;;;604340;92;3001975;-29
2020/12/07 01:40:44;;;;;;;6.05;3.83;;;20.70;43.90;;;;;;607597;91;3002176;-30
2020/12/07 01:43:11;;;;;;;4.15;3.15;;;20.70;43.90;;;;;;606621;91;3001967;-30
2020/12/07 01:45:39;;;;;;;4.20;3.77;;;20.70;43.90;;;;;;607363;91;3002847;-31
2020/12/07 01:48:09;;;;;;;3.95;3.45;;;20.70;43.90;;;;;;606849;91;3001950;-28
2020/12/07 01:50:39;;;;;;;5.00;3.85;;;20.70;43.90;;;;;;611183;91;3003085;-29
2020/12/07 01:53:07;;;;;;;7.40;4.22;;;20.70;43.90;;;;;;607380;90;3002213;-31
2020/12/07 01:55:34;;;;;;;5.33;3.77;;;20.70;43.90;;;;;;607373;91;3001950;-32
2020/12/07 01:58:02;;;;;;;4.37;3.80;;;20.70;43.90;;;;;;608616;91;3002402;-29
2020/12/07 02:00:30;;;;;;;4.55;4.03;;;20.70;43.90;;;;;;610078;90;3002294;-31
2020/12/07 02:02:58;;;;;;;4.62;4.03;;;20.70;43.90;;;;;;609904;91;3002496;-30
2020/12/07 02:05:28;;;;;;;4.22;3.40;;;20.70;44.00;;;;;;601934;91;3001622;-30
2020/12/07 02:08:16;;;;;;;4.12;3.62;;;20.70;43.90;;;;;;607774;91;3001733;-29
2020/12/07 02:10:46;;;;;;;4.17;3.45;;;20.60;43.90;;;;;;598805;91;3002036;-29
2020/12/07 02:13:14;;;;;;;4.60;4.20;;;20.60;43.90;;;;;;604465;91;3001589;-31
2020/12/07 02:15:42;;;;;;;4.67;3.95;;;20.60;43.90;;;;;;610277;90;3002193;-32
2020/12/07 02:18:10;;;;;;;4.78;3.83;;;20.60;44.00;;;;;;604972;91;3002022;-31
2020/12/07 02:20:38;;;;;;;4.15;3.70;;;20.60;44.40;;;;;;606339;91;3003441;-32
2020/12/07 02:23:05;;;;;;;5.72;4.00;;;20.60;43.90;;;;;;604140;91;3002039;-32
2020/12/07 02:25:33;;;;;;;7.47;4.00;;;20.60;43.90;;;;;;607295;91;3002326;-30
2020/12/07 02:28:00;;;;;;;5.20;3.98;;;20.70;43.90;;;;;;599273;91;3002238;-28
2020/12/07 02:30:28;;;;;;;4.85;3.65;;;20.60;43.90;;;;;;604035;91;3002022;-28
2020/12/07 02:32:56;;;;;;;4.42;3.58;;;20.60;44.40;;;;;;596542;91;3002032;-29
2020/12/07 02:35:23;;;;;;;4.17;3.75;;;20.60;43.90;;;;;;604011;91;3002010;-32
2020/12/07 02:37:51;;;;;;;3.90;3.47;;;20.70;43.90;;;;;;604655;91;3003003;-32
2020/12/07 02:40:18;;;;;;;4.90;3.62;;;20.60;43.80;;;;;;602086;92;3002417;-29
2020/12/07 02:42:46;;;;;;;4.97;3.72;;;20.70;43.90;;;;;;608369;91;3002406;-29
2020/12/07 02:45:15;;;;;;;5.42;4.42;;;20.60;43.80;;;;;;594964;92;3001966;-32
2020/12/07 02:47:44;;;;;;;4.40;3.83;;;20.60;43.80;;;;;;601183;92;3002300;-30
2020/12/07 02:50:14;;;;;;;5.17;3.90;;;20.60;43.80;;;;;;606635;91;3002841;-28
2020/12/07 02:52:41;;;;;;;4.55;3.98;;;20.60;43.50;;;;;;596544;92;3001956;-28
2020/12/07 02:55:11;;;;;;;5.35;3.90;;;20.60;43.80;;;;;;599341;93;3002513;-29
2020/12/07 02:57:39;;;;;;;4.83;3.62;;;20.60;43.80;;;;;;606024;91;3002016;-30
2020/12/07 03:00:08;;;;;;;5.78;3.77;;;20.70;43.90;;;;;;599589;92;3001945;-30
2020/12/07 03:02:36;;;;;;;3.75;3.35;;;20.70;43.90;;;;;;610491;90;3001605;-30
2020/12/07 03:05:05;;;;;;;4.05;3.65;;;20.70;43.90;;;;;;606329;91;3002365;-28
2020/12/07 03:07:33;;;;;;;3.85;3.25;;;20.70;43.80;;;;;;606404;91;3002244;-29
2020/12/07 03:10:01;;;;;;;5.83;4.08;;;20.70;43.80;;;;;;599377;92;3001964;-31
2020/12/07 03:12:28;;;;;;;5.03;3.40;;;20.70;43.80;;;;;;602023;91;3002180;-28
2020/12/07 03:14:56;;;;;;;4.58;3.55;;;20.70;43.80;;;;;;602472;91;3002427;-28
2020/12/07 03:17:23;;;;;;;4.60;3.70;;;20.70;43.70;;;;;;598873;91;3002333;-30
2020/12/07 03:19:51;;;;;;;6.22;4.05;;;20.80;43.70;;;;;;600840;90;3001912;-29
2020/12/07 03:22:18;;;;;;;5.15;3.83;;;20.80;43.70;;;;;;606716;90;3002038;-32
2020/12/07 03:24:46;;;;;;;3.70;3.30;;;20.80;43.70;;;;;;602351;92;3001960;-31
2020/12/07 03:27:14;;;;;;;7.53;4.08;;;20.80;43.70;;;;;;606747;91;3001992;-30
2020/12/07 03:29:41;;;;;;;4.25;3.60;;;20.80;43.60;;;;;;605118;92;3002344;-28
2020/12/07 03:32:09;;;;;;;4.00;3.22;;;20.80;43.60;;;;;;608933;91;3002033;-31
2020/12/07 03:34:36;;;;;;;3.72;3.30;;;20.80;43.60;;;;;;605155;90;3002475;-30
2020/12/07 03:37:04;;;;;;;5.35;3.58;;;20.80;43.60;;;;;;613908;90;3003372;-28
2020/12/07 03:39:32;;;;;;;4.45;3.47;;;20.80;43.50;;;;;;610613;90;3001951;-31
2020/12/07 03:41:59;;;;;;;5.05;3.62;;;20.80;43.50;;;;;;606630;91;3002211;-28
2020/12/07 03:44:27;;;;;;;3.45;2.98;;;20.90;43.50;;;;;;611936;90;3002091;-30
2020/12/07 03:46:55;;;;;;;3.50;3.02;;;20.90;43.50;;;;;;604583;91;3001983;-29
2020/12/07 03:49:22;;;;;;;4.33;3.65;;;20.80;43.50;;;;;;606549;91;3003045;-29
2020/12/07 03:51:50;;;;;;;4.87;3.92;;;20.90;43.50;;;;;;608355;90;3002640;-28
2020/12/07 03:54:17;;;;;;;4.37;3.42;;;20.90;43.40;;;;;;611689;89;3001944;-32
2020/12/07 03:56:45;;;;;;;4.10;3.22;;;20.90;43.40;;;;;;613167;90;3002137;-28
2020/12/07 03:59:12;;;;;;;5.17;3.62;;;20.90;43.40;;;;;;608869;91;3002039;-28
2020/12/07 04:01:40;;;;;;;4.25;3.58;;;20.90;43.50;;;;;;605926;91;3002698;-32
2020/12/07 04:04:11;;;;;;;4.95;4.08;;;20.90;43.40;;;;;;605113;91;3003817;-29
2020/12/07 04:06:41;;;;;;;3.50;3.20;;;20.90;43.30;;;;;;604400;91;3001996;-30
2020/12/07 04:09:07;;;;;;;3.98;3.52;;;20.90;43.30;;;;;;607889;91;3002014;-29
2020/12/07 04:11:35;;;;;;;3.95;3.27;;;20.90;43.20;;;;;;606880;91;3002335;-30
2020/12/07 04:14:02;;;;;;;4.00;3.60;;;20.90;43.30;;;;;;608091;90;3002408;-29
2020/12/07 04:16:30;;;;;;;3.92;3.52;;;20.90;43.20;;;;;;609267;91;3003119;-32
2020/12/07 04:18:58;;;;;;;4.08;3.35;;;20.90;43.20;;;;;;605541;91;3002017;-29
2020/12/07 04:21:25;;;;;;;4.03;3.25;;;20.90;43.20;;;;;;606962;91;3002610;-34
2020/12/07 04:23:53;;;;;;;4.72;3.80;;;20.90;43.10;;;;;;605799;91;3002552;-29
2020/12/07 04:26:20;;;;;;;4.42;3.25;;;20.90;43.20;;;;;;608755;91;3001997;-29
2020/12/07 04:28:49;;;;;;;4.08;3.40;;;20.90;43.20;;;;;;588775;93;3002279;-29
2020/12/07 04:31:17;;;;;;;4.25;2.90;;;20.90;43.30;;;;;;606210;89;3001868;-29
2020/12/07 04:33:44;;;;;;;3.35;2.67;;;20.90;43.10;;;;;;606070;91;3003308;-28
2020/12/07 04:36:12;;;;;;;3.67;3.27;;;20.90;43.10;;;;;;607526;91;3003448;-31
2020/12/07 04:38:40;;;;;;;4.58;3.52;;;20.90;43.10;;;;;;604962;91;3002331;-31
2020/12/07 04:41:08;;;;;;;3.85;3.37;;;20.90;43.00;;;;;;603141;91;3001940;-29
2020/12/07 04:43:36;;;;;;;3.77;3.08;;;20.90;43.00;;;;;;606332;91;3001941;-28
2020/12/07 04:46:04;;;;;;;4.08;3.12;;;20.90;43.00;;;;;;605157;89;3002518;-30
2020/12/07 04:48:34;;;;;;;4.10;3.30;;;20.90;43.00;;;;;;602794;91;3003078;-28
2020/12/07 04:51:02;;;;;;;6.67;3.60;;;20.90;43.00;;;;;;606457;90;3002056;-27
2020/12/07 04:53:32;;;;;;;3.72;2.95;;;20.90;43.00;;;;;;604762;91;3001935;-30
2020/12/07 04:56:01;;;;;;;4.05;3.37;;;20.90;42.90;;;;;;606802;91;3002360;-29
2020/12/07 04:58:29;;;;;;;4.05;3.65;;;20.90;42.90;;;;;;601450;91;3001968;-29
2020/12/07 05:00:57;;;;;;;4.70;3.83;;;20.90;42.90;;;;;;607667;91;3002045;-28
2020/12/07 05:03:25;;;;;;;3.92;3.17;;;20.90;42.90;;;;;;604378;90;3002961;-31
2020/12/07 05:05:54;;;;;;;4.20;3.15;;;20.90;42.80;;;;;;606718;91;3001977;-31
2020/12/07 05:08:25;;;;;;;4.85;3.35;;;20.90;42.80;;;;;;602317;92;3001659;-30
2020/12/07 05:10:54;;;;;;;3.45;2.72;;;20.90;42.80;;;;;;607073;91;3002389;-29
2020/12/07 05:15:54;;;;;;;3.50;3.17;;;21.00;42.90;;;;;;607461;91;3002475;-29
2020/12/07 05:18:22;;;;;;;3.95;3.47;;;20.90;42.80;;;;;;604296;91;3002011;-29
2020/12/07 05:20:50;;;;;;;3.30;3.00;;;20.90;42.80;;;;;;606226;89;3002336;-32
2020/12/07 05:23:18;;;;;;;3.72;3.37;;;20.90;43.40;;;;;;598204;91;3001980;-32
2020/12/07 05:25:46;;;;;;;4.03;3.45;;;21.00;42.90;;;;;;595240;93;3002359;-32
2020/12/07 05:28:27;;;;;;;6.72;4.15;;;20.90;42.90;;;;;;596540;91;3001699;-33
2020/12/07 05:30:51;;;;;;;4.85;3.83;;;21.00;42.90;;;;;;604276;91;3002114;-30
2020/12/07 05:33:19;;;;;;;4.95;3.58;;;21.00;42.80;;;;;;603148;91;3002498;-32
2020/12/07 05:35:54;;;;;;;5.03;3.85;;;21.00;42.90;;;;;;593137;91;3002083;-29
2020/12/07 05:38:21;;;;;;;5.72;3.40;;;20.90;43.10;;;;;;604711;90;3002044;-28
2020/12/07 05:40:49;;;;;;;5.22;3.50;;;21.00;42.90;;;;;;604554;91;3001992;-27
2020/12/07 05:43:19;;;;;;;4.72;3.12;;;20.90;42.80;;;;;;604841;91;3002014;-30
2020/12/07 05:45:48;;;;;;;4.40;3.25;;;21.00;42.80;;;;;;605161;91;3003254;-30
2020/12/07 05:48:19;;;;;;;5.35;3.42;;;20.90;42.80;;;;;;599704;91;3002022;-31
2020/12/07 05:50:48;;;;;;;5.22;3.90;;;21.00;42.90;;;;;;607184;90;3002064;-31
2020/12/07 05:53:16;;;;;;;5.15;3.75;;;21.00;43.00;;;;;;606308;91;3001564;-34
2020/12/07 05:55:44;;;;;;;5.33;3.77;;;21.00;43.30;;;;;;594146;93;3002015;-32
2020/12/07 05:58:12;;;;;;;5.25;3.80;;;21.00;43.10;;;;;;599041;91;3001953;-32
2020/12/07 06:00:42;;;;;;;5.92;3.83;;;21.00;43.10;;;;;;605941;90;3003474;-30
2020/12/07 06:03:09;;;;;;;6.15;3.52;;;21.00;43.20;;;;;;607668;91;3002429;-28
2020/12/07 06:05:40;;;;;;;5.03;3.92;;;21.00;43.20;;;;;;605322;91;3002004;-28
2020/12/07 06:08:17;;;;;;;6.15;3.75;;;21.00;43.20;;;;;;605245;91;3002322;-29
2020/12/07 06:10:48;;;;;;;7.20;4.17;;;21.00;43.20;;;;;;603185;90;3001958;-28
2020/12/07 06:13:20;;;;;;;4.65;3.95;;;21.00;43.30;;;;;;604690;90;3003678;-31
2020/12/07 06:15:49;;;;;;;6.25;4.20;;;21.00;43.20;;;;;;605978;90;3002442;-31
2020/12/07 06:18:37;;;;;;;5.03;4.33;;;21.00;43.20;;;;;;606709;91;3002000;-32
2020/12/07 06:21:07;;;;;;;6.65;4.05;;;21.00;43.20;;;;;;602827;90;3002024;-29
2020/12/07 06:23:37;;;;;;;4.58;3.85;;;21.00;43.20;;;;;;605744;91;3002400;-33
2020/12/07 06:26:10;;;;;;;5.05;3.85;;;21.00;43.10;;;;;;606556;90;3002371;-30
2020/12/07 06:28:40;;;;;;;4.60;4.17;;;21.00;43.10;;;;;;605899;92;3002062;-29
2020/12/07 06:31:13;;;;;;;5.15;4.10;;;21.00;43.00;;;;;;605455;91;3002417;-30
2020/12/07 06:33:46;;;;;;;3.90;3.50;;;21.00;43.00;;;;;;611999;90;3003991;-28
2020/12/07 06:36:33;;;;;;;7.28;3.58;;;21.00;43.00;;;;;;611561;90;3002008;-30
2020/12/07 06:39:08;;;;;;;6.92;4.78;;;21.00;43.10;;;;;;605899;90;3003374;-31
2020/12/07 06:41:41;;;;;;;6.53;4.15;;;21.00;43.20;;;;;;604731;91;3002337;-30
2020/12/07 06:44:18;;;;;;;5.45;4.42;;;21.00;43.20;;;;;;603546;91;3001863;-30
2020/12/07 06:47:45;;;;;;;5.85;4.17;;;21.10;43.30;;;;;;609547;90;3001642;-31
2020/12/07 06:52:11;;;;;;;9.65;4.05;;;21.10;43.70;;;;;;611995;90;3001899;-31
2020/12/07 06:57:54;;;;;;;5.97;4.87;;;21.20;43.70;;;;;;608492;91;3001835;-31
2020/12/07 07:00:26;;;;;;;5.28;4.33;;;21.20;43.40;;;;;;607622;91;3003374;-33
2020/12/07 07:02:56;;;;;;;5.80;4.93;;;21.30;43.30;;;;;;605072;91;3010557;-28
2020/12/07 07:05:27;;;;;;;6.33;5.00;;;21.40;43.20;;;;;;604203;91;3002394;-30
2020/12/07 07:07:56;;;;;;;6.45;5.03;;;21.40;43.00;;;;;;606774;91;3002020;-28
2020/12/07 07:10:24;;;;;;;5.12;4.20;;;21.50;43.00;;;;;;605249;90;3002465;-30
2020/12/07 07:12:52;;;;;;;7.33;5.00;;;21.60;42.90;;;;;;606444;90;3002280;-29
2020/12/07 07:15:20;;;;;;;5.08;4.22;;;21.60;42.70;;;;;;607002;91;3002348;-30
2020/12/07 07:17:48;;;;;;;4.70;3.87;;;21.70;42.70;;;;;;608503;91;3002013;-31
2020/12/07 07:20:17;;;;;;;6.47;4.65;;;21.70;42.50;;;;;;609444;91;3002273;-31
2020/12/07 07:22:48;;;;;;;5.37;3.75;;;21.80;42.50;;;;;;600429;92;3001812;-31
2020/12/07 07:28:04;;;;;;;5.08;4.25;;;21.90;42.30;;;;;;604487;90;3002900;-33
2020/12/07 07:30:27;;;;;;;5.58;4.47;;;22.00;42.40;;;;;;606041;92;3002105;-32
2020/12/07 07:32:56;;;;;;;5.78;4.20;;;22.10;42.20;;;;;;599013;91;3001910;-31
2020/12/07 07:35:26;;;;;;;6.65;4.65;;;22.10;42.00;;;;;;603701;91;3001873;-33
2020/12/07 07:37:54;;;;;;;5.53;4.15;;;22.10;42.00;;;;;;600861;91;3002306;-30
2020/12/07 07:40:24;;;;;;;5.90;4.47;;;22.10;42.00;;;;;;602798;89;3002191;-30
2020/12/07 07:42:54;;;;;;;6.22;4.72;;;22.10;42.60;;;;;;606586;90;3002024;-32
2020/12/07 07:45:24;;;;;;;7.87;5.17;;;22.20;42.10;;;;;;604543;91;3002580;-29
2020/12/07 08:12:46;;;;;;;8.33;6.30;;;22.40;41.80;;;;;;606437;91;3003606;-31
2020/12/07 08:17:23;;;;;;;7.55;6.12;;;22.40;42.10;;;;;;600739;93;3002415;-30
2020/12/07 08:19:52;;;;;;;8.38;6.45;;;;;;;;;;602408;92;3001907;-31
2020/12/07 08:22:20;;;;;;;9.45;6.10;;;;;;;;;;603510;91;3001951;-31
2020/12/07 08:24:59;;;;;;;9.25;6.40;;;22.40;42.10;;;;;;601111;92;3001891;-31
2020/12/07 08:27:32;;;;;;;10.38;6.53;;;;;;;;;;609636;91;3001585;-32
2020/12/07 08:30:07;;;;;;;8.03;5.87;;;;;;;;;;607309;91;3001732;-30
2020/12/07 08:32:35;;;;;;;7.85;6.28;;;22.40;42.70;;;;;;605734;91;3001980;-32
2020/12/07 08:35:13;;;;;;;7.40;6.40;;;22.50;42.50;;;;;;608684;91;3001951;-32
2020/12/07 08:37:41;;;;;;;7.30;6.00;;;;;;;;;;609425;91;3001881;-32
2020/12/07 08:40:09;;;;;;;7.05;5.37;;;22.50;42.50;;;;;;605241;93;3002271;-31
2020/12/07 08:42:37;;;;;;;9.05;6.87;;;22.50;42.00;;;;;;606428;90;3002365;-32
2020/12/07 08:45:05;;;;;;;7.42;6.25;;;22.50;42.40;;;;;;607245;91;3001910;-31
2020/12/07 08:47:33;;;;;;;7.85;5.95;;;22.60;42.00;;;;;;601488;91;3001856;-32
2020/12/07 08:50:00;;;;;;;8.33;6.25;;;22.60;41.90;;;;;;608386;91;3002167;-33
2020/12/07 08:52:31;;;;;;;7.20;5.90;;;22.60;41.90;;;;;;611974;90;3001955;-32
2020/12/07 08:54:59;;;;;;;8.43;6.45;;;22.60;41.90;;;;;;606918;91;3002015;-31
2020/12/07 08:57:26;;;;;;;8.25;6.17;;;22.60;41.90;;;;;;604236;91;3001702;-31
2020/12/07 08:59:54;;;;;;;8.18;5.62;;;22.60;41.90;;;;;;607822;91;3001672;-32
2020/12/07 09:02:21;;;;;;;7.53;5.53;;;22.60;41.90;;;;;;606489;90;3001906;-30
2020/12/07 09:04:49;;;;;;;7.72;5.70;;;22.60;41.90;;;;;;606488;91;3001876;-31
2020/12/07 09:07:16;;;;;;;8.15;6.62;;;22.60;41.90;;;;;;606069;91;3002029;-30
2020/12/07 09:09:44;;;;;;;10.03;6.37;;;22.60;41.90;;;;;;610698;91;3002168;-31
2020/12/07 09:12:12;;;;;;;10.65;6.72;;;22.60;42.20;;;;;;607368;91;3002986;-30
2020/12/07 09:14:39;;;;;;;8.55;6.20;;;22.60;41.90;;;;;;607061;91;3001927;-32
2020/12/07 09:17:07;;;;;;;7.08;5.92;;;22.70;41.90;;;;;;607437;91;3001941;-31
2020/12/07 09:19:37;;;;;;;8.70;5.92;;;22.60;41.80;;;;;;607742;91;3001984;-31
2020/12/07 09:22:04;;;;;;;23.15;6.72;;;22.70;41.80;;;;;;609023;91;3001861;-32
2020/12/07 09:24:31;;;;;;;7.35;5.95;;;22.70;41.90;;;;;;602765;92;3001908;-29
2020/12/07 09:26:59;;;;;;;7.75;5.65;;;22.70;41.80;;;;;;598095;91;3002181;-30
2020/12/07 09:29:26;;;;;;;7.50;5.30;;;22.70;41.80;;;;;;606512;91;3001926;-33
2020/12/07 09:31:54;;;;;;;8.83;6.03;;;22.70;41.80;;;;;;608308;91;3001942;-33
2020/12/07 09:34:21;;;;;;;7.90;6.05;;;22.70;42.40;;;;;;609106;91;3001982;-29
2020/12/07 09:36:49;;;;;;;7.85;5.95;;;22.60;41.70;;;;;;605619;91;3001994;-32
2020/12/07 09:39:17;;;;;;;15.98;7.55;;;22.60;42.00;;;;;;605924;90;3001950;-32
2020/12/07 09:41:45;;;;;;;13.43;7.17;;;22.60;43.50;;;;;;605594;91;3002323;-31
2020/12/07 09:44:14;;;;;;;14.23;7.20;;;22.60;45.30;;;;;;603269;91;3001973;-32
2020/12/07 09:46:42;;;;;;;17.92;7.78;;;22.60;44.90;;;;;;604167;92;3002477;-32
2020/12/07 09:49:09;;;;;;;12.88;7.35;;;22.60;45.20;;;;;;607436;91;3001963;-32
2020/12/07 09:51:39;;;;;;;13.40;7.37;;;22.60;45.50;;;;;;598310;91;3001922;-29
2020/12/07 09:54:07;;;;;;;14.80;7.10;;;22.60;45.20;;;;;;607247;91;3001938;-34
2020/12/07 09:56:35;;;;;;;11.30;6.78;;;22.60;45.40;;;;;;604319;92;3001905;-34
2020/12/07 09:59:02;;;;;;;14.07;7.10;;;22.60;44.90;;;;;;608048;90;3002030;-33
2020/12/07 10:01:30;;;;;;;13.58;6.95;;;22.60;45.30;;;;;;594185;91;3002243;-32
2020/12/07 10:03:58;;;;;;;15.23;7.67;;;22.60;44.90;;;;;;607818;90;3001854;-31
2020/12/07 10:06:25;;;;;;;16.05;7.12;;;22.60;45.10;;;;;;603189;91;3002511;-33
2020/12/07 10:08:53;;;;;;;13.65;7.62;;;22.70;44.90;;;;;;596992;93;3001944;-32
2020/12/07 10:11:21;;;;;;;12.70;6.90;;;22.70;45.00;;;;;;600592;91;3002955;-31
2020/12/07 10:13:48;;;;;;;10.65;6.47;;;22.70;45.00;;;;;;608199;91;3001886;-31
2020/12/07 10:16:16;;;;;;;18.10;8.20;;;22.70;44.90;;;;;;603227;92;3002282;-30
2020/12/07 10:18:44;;;;;;;13.08;6.85;;;22.70;45.30;;;;;;601610;91;3001569;-31
2020/12/07 10:21:12;;;;;;;12.10;6.65;;;22.70;45.00;;;;;;605874;91;3001591;-32
2020/12/07 10:23:39;;;;;;;9.40;6.45;;;22.80;45.30;;;;;;599372;92;3001931;-31
2020/12/07 10:26:07;;;;;;;13.93;6.83;;;22.80;44.80;;;;;;602858;92;3002655;-30
2020/12/07 10:28:34;;;;;;;24.47;7.62;;;;;;;;;;601974;91;3002406;-37
2020/12/07 10:31:02;;;;;;;16.52;7.70;;;;;;;;;;597072;91;3002085;-33
2020/12/07 10:33:29;;;;;;;14.23;8.13;;;22.80;44.70;;;;;;607768;91;3002005;-31
2020/12/07 10:35:57;;;;;;;12.65;7.05;;;22.80;44.40;;;;;;606885;90;3002217;-32
2020/12/07 10:38:24;;;;;;;13.85;6.92;;;22.80;44.30;;;;;;607817;90;3001898;-32
2020/12/07 10:40:52;;;;;;;10.82;6.60;;;22.90;44.20;;;;;;603212;91;3002037;-31
2020/12/07 10:43:20;;;;;;;12.73;6.92;;;22.90;44.20;;;;;;603592;91;3001961;-32
2020/12/07 10:45:47;;;;;;;16.20;7.17;;;22.90;44.30;;;;;;606478;91;3002154;-33
2020/12/07 10:48:15;;;;;;;12.73;7.33;;;22.80;44.30;;;;;;602335;91;3001804;-33
2020/12/07 10:50:42;;;;;;;13.28;7.03;;;22.80;44.30;;;;;;605179;91;3002176;-33
2020/12/07 10:53:10;;;;;;;14.83;6.17;;;22.80;44.30;;;;;;605462;91;3001960;-33
2020/12/07 10:55:37;;;;;;;9.65;6.22;;;22.80;44.60;;;;;;605879;90;3002807;-38
2020/12/07 10:58:05;;;;;;;11.93;6.87;;;22.80;44.70;;;;;;606201;92;3002000;-31
2020/12/07 11:00:33;;;;;;;10.63;6.45;;;22.80;44.40;;;;;;607355;91;3002608;-34
2020/12/07 11:03:00;;;;;;;13.15;6.67;;;22.80;44.20;;;;;;603145;92;3002278;-31
2020/12/07 11:05:28;;;;;;;15.85;6.37;;;22.80;44.40;;;;;;601235;90;3002992;-33
2020/12/07 11:07:56;;;;;;;13.50;6.65;;;22.80;44.10;;;;;;609396;91;3002718;-33
2020/12/07 11:10:24;;;;;;;12.37;7.22;;;22.80;44.20;;;;;;606723;91;3002711;-30
2020/12/07 11:13:00;;;;;;;11.97;6.42;;;22.70;44.10;;;;;;602579;92;3001861;-33
2020/12/07 11:15:21;;;;;;;11.68;6.42;;;22.70;44.10;;;;;;604256;91;3001906;-32
2020/12/07 11:17:48;;;;;;;16.27;7.15;;;22.70;44.10;;;;;;610237;91;3001952;-32
2020/12/07 11:20:16;;;;;;;8.98;6.47;;;22.70;44.10;;;;;;604382;91;3001963;-31
2020/12/07 11:22:43;;;;;;;10.43;6.78;;;22.70;44.00;;;;;;604003;92;3001953;-32
2020/12/07 11:25:11;;;;;;;10.60;6.87;;;22.70;44.00;;;;;;609054;91;3001974;-31
2020/12/07 11:27:38;;;;;;;12.55;7.08;;;22.70;43.90;;;;;;607149;91;3001870;-32
2020/12/07 11:30:06;;;;;;;11.57;6.53;;;22.70;43.80;;;;;;608559;91;3002003;-30
2020/12/07 11:32:34;;;;;;;10.45;7.10;;;22.70;43.80;;;;;;607138;91;3001995;-31
2020/12/07 11:35:02;;;;;;;10.70;6.08;;;22.70;43.80;;;;;;607279;91;3001971;-31
2020/12/07 11:37:29;;;;;;;9.10;5.90;;;22.70;43.70;;;;;;606851;91;3001852;-33
2020/12/07 11:40:11;;;;;;;10.55;6.75;;;22.70;43.20;;;;;;606943;91;3002712;-35
2020/12/07 11:42:36;;;;;;;8.15;6.08;;;22.70;43.80;;;;;;607038;91;3002156;-33
2020/12/07 11:44:56;;;;;;;8.75;6.30;;;22.80;43.70;;;;;;606761;89;3001989;-40
2020/12/07 11:47:24;;;;;;;8.28;6.05;;;22.70;43.70;;;;;;608548;91;3001936;-34
2020/12/07 11:49:51;;;;;;;7.33;5.33;;;22.80;43.70;;;;;;606147;91;3001896;-33
2020/12/07 11:52:19;;;;;;;9.20;6.35;;;22.70;44.10;;;;;;611186;91;3002051;-32
2020/12/07 11:54:46;;;;;;;12.75;6.85;;;22.80;43.60;;;;;;605596;91;3001935;-32
2020/12/07 11:57:15;;;;;;;9.38;5.80;;;22.80;43.90;;;;;;610110;91;3002175;-31
2020/12/07 11:59:43;;;;;;;7.30;5.25;;;22.80;43.40;;;;;;607699;90;3002263;-29
2020/12/07 12:02:10;;;;;;;13.58;5.80;;;22.80;43.50;;;;;;604625;90;3001964;-31
2020/12/07 12:04:38;;;;;;;8.68;5.53;;;22.80;43.40;;;;;;605629;91;3001931;-33
2020/12/07 12:07:07;;;;;;;9.65;6.30;;;22.80;43.30;;;;;;605823;91;3002039;-29
2020/12/07 12:09:37;;;;;;;9.25;5.50;;;22.80;43.30;;;;;;607236;89;3003265;-29
2020/12/07 12:12:05;;;;;;;7.92;6.05;;;22.70;43.30;;;;;;607278;91;3001933;-31
2020/12/07 12:14:32;;;;;;;9.45;6.17;;;22.70;43.20;;;;;;608304;90;3002379;-30
2020/12/07 12:17:00;;;;;;;8.70;6.15;;;22.70;43.20;;;;;;604210;90;3002396;-30
2020/12/07 12:19:27;;;;;;;7.92;5.80;;;22.70;43.30;;;;;;602699;91;3002133;-33
2020/12/07 12:21:56;;;;;;;10.32;6.00;;;22.70;43.30;;;;;;608047;92;3001915;-31
2020/12/07 12:24:24;;;;;;;9.55;6.12;;;22.60;43.20;;;;;;611136;91;3001982;-33
2020/12/07 12:26:52;;;;;;;9.88;6.05;;;22.60;43.20;;;;;;606616;91;3001883;-30
2020/12/07 12:29:20;;;;;;;8.08;5.47;;;22.60;43.30;;;;;;606367;91;3001993;-32
2020/12/07 12:31:48;;;;;;;10.10;6.10;;;22.60;43.30;;;;;;607274;91;3002822;-30
2020/12/07 12:34:15;;;;;;;8.68;5.67;;;22.60;43.30;;;;;;602733;91;3001974;-30
2020/12/07 12:36:43;;;;;;;11.83;6.80;;;22.60;43.30;;;;;;604757;91;3002172;-29
2020/12/07 12:39:11;;;;;;;10.40;6.33;;;22.60;43.30;;;;;;604944;92;3002037;-30
2020/12/07 12:41:39;;;;;;;11.70;6.53;;;22.50;43.20;;;;;;606194;91;3002503;-30
2020/12/07 12:44:09;;;;;;;10.13;6.15;;;22.60;43.20;;;;;;601818;91;3002963;-30
2020/12/07 12:46:39;;;;;;;12.05;6.25;;;22.60;43.20;;;;;;605681;91;3002448;-30
2020/12/07 12:49:07;;;;;;;12.23;6.87;;;22.50;43.10;;;;;;601564;91;3002512;-30
2020/12/07 12:51:35;;;;;;;10.20;6.10;;;22.50;43.00;;;;;;603532;91;3003130;-30
2020/12/07 12:54:03;;;;;;;10.45;5.72;;;22.50;43.00;;;;;;603793;91;3002312;-30
2020/12/07 12:56:30;;;;;;;11.90;6.75;;;22.50;43.00;;;;;;601909;92;3001963;-32
2020/12/07 12:58:58;;;;;;;11.40;6.67;;;22.50;42.90;;;;;;604989;90;3002490;-30
2020/12/07 13:01:25;;;;;;;14.18;7.55;;;22.50;42.80;;;;;;606300;91;3003435;-32
2020/12/07 13:03:53;;;;;;;14.18;6.60;;;22.50;42.80;;;;;;608433;90;3002124;-30
2020/12/07 13:06:21;;;;;;;12.55;6.20;;;22.50;42.70;;;;;;606715;90;3001697;-30
2020/12/07 13:08:49;;;;;;;9.05;5.95;;;22.50;42.70;;;;;;608447;91;3001995;-30
2020/12/07 13:11:16;;;;;;;12.03;6.92;;;22.50;43.20;;;;;;606459;89;3002350;-31
2020/12/07 13:13:44;;;;;;;8.93;6.20;;;22.50;42.60;;;;;;602720;90;3001956;-31
2020/12/07 13:16:15;;;;;;;11.40;6.30;;;22.50;42.50;;;;;;607815;90;3002142;-31
2020/12/07 13:18:50;;;;;;;12.15;6.60;;;22.50;42.60;;;;;;605729;90;3002466;-30
2020/12/07 13:23:58;;;;;;;11.88;6.10;;;22.50;42.50;;;;;;598909;91;3002019;-30